Latest Coastal Weather Observations for Rhyll

IDV60701

Issued at 1:22 am EDT Wednesday 1 March 2017 (issued every 10 minutes, with the page automatically refreshed every 10 minutes)

About coastal observations | Map of coastal stations | Coastal observations for VIC | Marine services | Other Formats
Station Details ID: 086373 Name: RHYLL Lat: -38.46 Lon: 145.31 Height: 13.4 m
Data from the previous 72 hours. | See also: Recent months at Rhyll
Date/Time
EDT
Temp
°C
Wind Pressure Rain since
9am
mm
Weather Cloud Vis
km
Sea
Height
m
Swell
Dir  Spd
kts
Gust
kts
hPa Trend Height
m
Period
s
Dir
01/01:00am 19.0 SSW 2 3 1020.8 - 0.0 - - - - - - -
01/12:30am 19.1 S 3 4 1021.0 - 0.0 - - - - - - -
01/12:00am 19.3 SW 4 6 1020.9 - 0.0 - - - - - - -
 
Date/Time
EDT
Temp
°C
Wind Pressure Rain since
9am
mm
Weather Cloud Vis
km
Sea
Height
m
Swell
Dir  Spd
kts
Gust
kts
hPa Trend Height
m
Period
s
Dir
28/11:30pm 19.4 SSE 3 4 1021.1 - 0.0 - - - - - - -
28/11:00pm 20.1 SSE 3 5 1021.2 - 0.0 - - - - - - -
28/10:30pm 19.8 SSE 3 4 1021.3 - 0.0 - - - - - - -
28/10:00pm 21.2 SE 4 5 1021.3 - 0.0 - - - - - - -
28/09:30pm 21.3 SE 6 7 1021.0 - 0.0 - - - - - - -
28/09:00pm 20.9 S 4 6 1020.8 - 0.0 - - - - - - -
28/08:30pm 21.3 SSE 5 6 1020.6 - 0.0 - - - - - - -
28/08:00pm 22.1 SSE 4 5 1020.5 - 0.0 - - - - - - -
28/07:30pm 23.5 SSE 5 7 1020.3 - 0.0 - - - - - - -
28/07:00pm 23.9 SE 5 6 1020.2 - 0.0 - - - - - - -
28/06:30pm 24.1 SSE 7 9 1020.1 - 0.0 - - - - - - -
28/06:00pm 24.4 SSE 7 10 1020.0 - 0.0 - - - - - - -
28/05:30pm 24.8 SSE 7 11 1020.1 - 0.0 - - - - - - -
28/05:00pm 26.6 S 5 7 1020.1 - 0.0 - - - - - - -
28/04:30pm 26.9 S 5 7 1020.2 - 0.0 - - - - - - -
28/04:00pm 26.3 S 5 7 1020.3 - 0.0 - - - - - - -
28/03:30pm 26.3 S 5 7 1020.5 - 0.0 - - - - - - -
28/03:00pm 26.5 SSE 6 8 1020.7 - 0.0 - - - - - - -
28/02:30pm 26.2 SSE 6 7 1020.9 - 0.0 - - - - - - -
28/02:00pm 26.0 S 4 6 1021.1 - 0.0 - - - - - - -
28/01:30pm 26.9 S 3 5 1021.2 - 0.0 - - - - - - -
28/01:00pm 26.8 S 2 3 1021.3 - 0.0 - - - - - - -
28/12:30pm 26.3 ENE 2 4 1021.5 - 0.0 - - - - - - -
28/12:00pm 25.6 NE 2 3 1021.7 - 0.0 - - - - - - -
28/11:30am 25.2 ENE 3 3 1021.9 - 0.0 - - - - - - -
28/11:00am 24.7 E 2 3 1022.1 - 0.0 - - - - - - -
28/10:30am 24.4 E 3 4 1022.2 - 0.0 - - - - - - -
28/10:00am 23.0 E 3 4 1022.2 - 0.0 - - - - - - -
28/09:30am 22.3 NE 3 3 1022.1 - 0.0 - - - - - - -
28/09:00am 19.2 N 6 8 1022.1 - 0.0 - - - - - - -
28/08:30am 18.5 NW 3 4 1021.8 - 0.0 - - - - - - -
28/08:00am 17.9 NNW 2 4 1021.5 - 0.0 - - - - - - -
28/07:30am 17.1 NW 1 1 1021.4 - 0.0 - - - - - - -
28/07:00am 17.4 NW 1 2 1020.9 - 0.0 - - - - - - -
28/06:30am 17.3 W 2 2 1020.7 - 0.0 - - - - - - -
28/06:00am 17.1 NW 1 2 1020.5 - 0.0 - - - - - - -
28/05:30am 17.6 WNW 2 3 1020.3 - 0.0 - - - - - - -
28/05:00am 17.6 W 3 4 1020.3 - 0.0 - - - - - - -
28/04:30am 17.4 SW 2 2 1020.3 - 0.0 - - - - - - -
28/04:00am 18.0 SW 3 4 1020.3 - 0.0 - - - - - - -
28/03:30am 17.7 SW 3 3 1020.4 - 0.0 - - - - - - -
28/03:00am 17.9 CALM 0 0 1020.6 - 0.0 - - - - - - -
28/02:30am 18.6 S 1 2 1020.8 - 0.0 - - - - - - -
28/02:00am 18.3 SE 3 4 1021.1 - 0.0 - - - - - - -
28/01:30am 18.6 E 3 5 1021.2 - 0.0 - - - - - - -
28/01:00am 19.2 ESE 4 4 1021.2 - 0.0 - - - - - - -
28/12:30am 19.9 E 4 5 1021.2 - 0.0 - - - - - - -
28/12:00am 19.6 E 4 5 1021.5 - 0.0 - - - - - - -
 
Date/Time
EDT
Temp
°C
Wind Pressure Rain since
9am
mm
Weather Cloud Vis
km
Sea
Height
m
Swell
Dir  Spd
kts
Gust
kts
hPa Trend Height
m
Period
s
Dir
27/11:30pm 19.9 E 3 3 1021.5 - 0.0 - - - - - - -
27/11:00pm 20.2 SE 1 3 1021.6 - 0.0 - - - - - - -
27/10:30pm 20.3 E 3 5 1021.6 - 0.0 - - - - - - -
27/10:00pm 20.8 E 6 7 1021.6 - 0.0 - - - - - - -
27/09:30pm 20.8 ENE 9 12 1021.5 - 0.0 - - - - - - -
27/09:00pm 21.7 E 11 13 1021.1 - 0.0 - - - - - - -
27/08:30pm 21.9 ESE 11 14 1020.8 - 0.0 - - - - - - -
27/08:00pm 22.9 ESE 13 15 1020.8 - 0.0 - - - - - - -
27/07:30pm 23.8 ESE 12 13 1020.7 - 0.0 - - - - - - -
27/07:00pm 24.6 ESE 11 13 1020.5 - 0.0 - - - - - - -
27/06:30pm 24.9 SE 8 10 1020.5 - 0.0 - - - - - - -
27/06:00pm 25.5 SE 7 8 1020.5 - 0.0 - - - - - - -
27/05:30pm 25.5 SE 8 9 1020.5 - 0.0 - - - - - - -
27/05:00pm 25.8 SSE 6 7 1020.5 - 0.0 - - - - - - -
27/04:30pm 25.9 SSE 6 7 1020.6 - 0.0 - - - - - - -
27/04:00pm 25.9 SSE 7 8 1020.8 - 0.0 - - - - - - -
27/03:30pm 26.4 SSE 7 9 1021.0 - 0.0 - - - - - - -
27/03:00pm 26.4 ESE 5 7 1021.3 - 0.0 - - - - - - -
27/02:30pm 25.8 SE 5 7 1021.7 - 0.0 - - - - - - -
27/02:00pm 25.0 SE 5 6 1021.9 - 0.0 - - - - - - -
27/01:30pm 24.6 ESE 5 5 1022.1 - 0.0 - - - - - - -
27/01:00pm 25.8 E 4 6 1022.3 - 0.0 - - - - - - -
27/12:30pm 25.7 E 5 6 1022.5 - 0.0 - - - - - - -
27/12:00pm 25.4 E 4 6 1022.7 - 0.0 - - - - - - -
27/11:30am 24.9 ENE 5 7 1023.0 - 0.0 - - - - - - -
27/11:00am 23.8 NE 3 5 1023.0 - 0.0 - - - - - - -
27/10:30am 23.0 ENE 4 6 1023.1 - 0.0 - - - - - - -
27/10:00am 21.8 ENE 6 8 1023.1 - 0.0 - - - - - - -
27/09:30am 20.5 ENE 8 10 1023.1 - 0.0 - - - - - - -
27/09:00am 19.3 NE 9 11 1023.1 - 0.0 - - - - - - -
27/08:30am 18.2 NE 8 10 1023.1 - 0.0 - - - - - - -
27/08:00am 16.8 NE 5 9 1022.9 - 0.0 - - - - - - -
27/07:30am 15.8 NW 1 3 1022.6 - 0.0 - - - - - - -
27/07:00am 15.1 SW 1 2 1021.9 - 0.0 - - - - - - -
27/06:30am 15.4 SW 2 3 1021.6 - 0.0 - - - - - - -
27/06:00am 15.2 CALM 0 1 1021.3 - 0.0 - - - - - - -
27/05:30am 15.6 SW 3 4 1021.2 - 0.0 - - - - - - -
27/05:00am 16.0 WSW 2 3 1020.8 - 0.0 - - - - - - -
27/04:30am 16.1 W 2 3 1020.8 - 0.0 - - - - - - -
27/04:00am 16.3 WNW 3 4 1020.9 - 0.0 - - - - - - -
27/03:30am 15.9 CALM 0 0 1021.0 - 0.0 - - - - - - -
27/03:00am 16.0 ESE 1 3 1021.1 - 0.0 - - - - - - -
27/02:30am 16.5 E 3 4 1021.1 - 0.0 - - - - - - -
27/02:00am 17.1 E 6 7 1021.2 - 0.0 - - - - - - -
27/01:30am 17.6 ENE 8 10 1021.3 - 0.0 - - - - - - -
27/01:00am 17.6 ENE 8 11 1021.4 - 0.0 - - - - - - -
27/12:30am 17.9 ENE 9 12 1021.5 - 0.0 - - - - - - -
27/12:00am 18.2 ENE 11 13 1021.5 - 0.0 - - - - - - -
 
Date/Time
EDT
Temp
°C
Wind Pressure Rain since
9am
mm
Weather Cloud Vis
km
Sea
Height
m
Swell
Dir  Spd
kts
Gust
kts
hPa Trend Height
m
Period
s
Dir
26/11:30pm 18.3 ENE 12 15 1021.7 - 0.0 - - - - - - -
26/11:00pm 18.6 ENE 14 17 1021.8 - 0.0 - - - - - - -
26/10:30pm 18.9 ENE 16 19 1021.8 - 0.0 - - - - - - -
26/10:00pm 19.3 ENE 16 19 1021.7 - 0.0 - - - - - - -
26/09:30pm 19.9 ENE 17 21 1021.5 - 0.0 - - - - - - -
26/09:00pm 20.0 E 11 14 1021.3 - 0.0 - - - - - - -
26/08:30pm 20.4 E 12 14 1020.7 - 0.0 - - - - - - -
26/08:00pm 21.1 E 15 17 1020.4 - 0.0 - - - - - - -
26/07:30pm 22.1 E 17 21 1020.1 - 0.0 - - - - - - -
26/07:00pm 22.7 ESE 17 20 1019.8 - 0.0 - - - - - - -
26/06:30pm 23.2 ESE 17 20 1019.5 - 0.0 - - - - - - -
26/06:00pm 23.6 ESE 17 22 1019.5 - 0.0 - - - - - - -
26/05:30pm 24.1 ESE 18 20 1019.2 - 0.0 - - - - - - -
26/05:00pm 24.6 SE 10 19 1019.2 - 0.0 - - - - - - -
26/04:30pm 26.2 SSE 6 11 1019.5 - 0.0 - - - - - - -
26/04:00pm 26.6 S 3 4 1019.8 - 0.0 - - - - - - -
26/03:30pm 27.1 ENE 6 7 1020.0 - 0.0 - - - - - - -
26/03:00pm 26.7 ENE 7 7 1020.3 - 0.0 - - - - - - -
26/02:30pm 26.7 NE 6 8 1020.7 - 0.0 - - - - - - -
26/02:00pm 26.0 NE 9 11 1020.9 - 0.0 - - - - - - -
26/01:30pm 25.3 NE 9 10 1021.0 - 0.0 - - - - - - -
26/01:00pm 25.6 NE 9 11 1021.3 - 0.0 - - - - - - -
26/12:30pm 26.3 NE 7 9 1021.7 - 0.0 - - - - - - -
26/12:00pm 24.9 NE 9 10 1021.9 - 0.0 - - - - - - -
26/11:30am 24.3 ENE 9 11 1022.2 - 0.0 - - - - - - -
26/11:00am 24.3 ENE 7 11 1022.3 - 0.0 - - - - - - -
26/10:30am 23.9 NE 5 7 1022.4 - 0.0 - - - - - - -
26/10:00am 22.2 ENE 7 10 1022.3 - 0.0 - - - - - - -
26/09:30am 20.8 E 9 12 1022.2 - 0.0 - - - - - - -
26/09:00am 19.5 ESE 8 10 1022.3 - 0.0 - - - - - - -
26/08:30am 17.9 ESE 12 14 1022.1 - 0.0 - - - - - - -
26/08:00am 17.4 ESE 11 13 1021.9 - 0.0 - - - - - - -
26/07:30am 16.5 ESE 11 13 1021.6 - 0.0 - - - - - - -
26/07:00am 16.2 ESE 13 16 1021.4 - 0.0 - - - - - - -
26/06:30am 16.2 ESE 13 16 1021.2 - 0.0 - - - - - - -
26/06:00am 16.2 ESE 15 19 1021.1 - 0.0 - - - - - - -
26/05:30am 16.0 ESE 16 18 1020.7 - 0.0 - - - - - - -
26/05:00am 16.1 ESE 15 17 1020.9 - 0.0 - - - - - - -
26/04:30am 15.9 ESE 13 16 1020.8 - 0.0 - - - - - - -
26/04:00am 16.1 ESE 14 18 1020.8 - 0.0 - - - - - - -
26/03:30am 16.3 ESE 17 19 1021.0 - 0.0 - - - - - - -
26/03:00am 16.3 ESE 18 21 1021.8 - 0.0 - - - - - - -
26/02:30am 16.3 ESE 15 20 1021.9 - 0.0 - - - - - - -
26/02:00am 16.3 SE 12 18 1022.1 - 0.0 - - - - - - -
26/01:30am 16.7 ESE 15 19 1022.3 - 0.0 - - - - - - -

Other Formats:

Comma delimited format used in spreadsheet applications
http://www.bom.gov.au/fwo/IDV60701/IDV60701.94892.axf

JavaScript Object Notation format (JSON) in row-major order
http://www.bom.gov.au/fwo/IDV60701/IDV60701.94892.json